Aérodrome :
LOGIN :

S'inscrire | Disclaimer

   EN    FR    IT 

 










Légende :    VFR   VFR Marginal   IFR   IFR Intensif   IFR Très Intensif
Visi : 
Plafond : 
>= 8 km
>= 3000ft
5 à 8 km
1000 à 3000 ft
1500m à 5 km
500 à 1000 ft
800 à 1500m
200 à 500 ft
< 800m
< 200 ft
Symboles :   Orages  Brouillard  Fortes neiges  Fortes précipitations  Vent > 20 kt
SIGMETs :   Divers  Orages  Givrage  Turbulence  Onde Orograph.  Cendres Volcan.






- Altitude de l'aérodrome : 22 ft
- Code IATA : SKG


LGTS - Thessaloniki

DERNIER METAR :
  • 221620Z VRB02KT CAVOK 07/M02 Q1025 NOSIG

METARs EXPIRÉS :
  • 221550Z VRB03KT CAVOK 09/M01 Q1026 NOSIG
  • 221520Z VRB03KT CAVOK 09/M02 Q1026 NOSIG
  • 221450Z VRB03KT CAVOK 10/M04 Q1026 NOSIG
  • 221420Z 27004KT CAVOK 10/M01 Q1026 NOSIG
  • 221350Z 27005KT CAVOK 10/M03 Q1027 NOSIG

TAF TAF LGTS
Valide du 22 à 12h jusqu'au 23 à 12h UTC


221100Z 2212/2312 34010KT CAVOK
BECMG 2222/2224 34015G25KT
BECMG 2302/2304 34025G40KT



MET'MAP, la Météo Aéronautique d'un coup d'oeil ! - Copyright ORBIFLY Décembre 2007 - Disclaimer

ORBIFLY MET'MAP TEAM :

Programmation & Développement : Alexandra Zaïnal
Sur une idée originale de : Baudouin d'Aumeries
Assistance à la programmation : Marc-Olivier Méhu
Soutien technique & logistique : Manuel Goepfert

Contact : metmap@orbifly.com




SOURCES & CREDITS :

   NOAA